Airfield :
LOGIN :

Register | Disclaimer

   EN    FR    IT 

 










Legend :    VFR   Marginal VFR   IFR   Intensive IFR   Very Intensive IFR
Visi :
Ceiling :
>= 8 km
>= 3000ft
5 to 8 km
1000 to 3000 ft
1500m to 5 km
500 to 1000 ft
800 to 1500m
200 to 500 ft
< 800m
< 200 ft
Symbols :   Thunderstorms  Fog  Heavy snow  Heavy precipitations  Wind > 20 kt
SIGMETs :     Misc.  Thunderstorms  Icing  Turbulence  Mountain Waves  Volcanic Ashes






- Airport Elevation : 265 ft


LFMC - Le Luc

CURRENT METAR :
  • 190400Z AUTO VRB02KT 9999 ////// 21/12 Q1012

EXPIRED METARs :
  • 190330Z AUTO 11004KT 080V140 9999 ////// 23/12 Q1012
  • 190300Z AUTO VRB03KT 9999 ////// 21/12 Q1012
  • 190230Z AUTO 27003KT 240V310 9999 ////// 22/13 Q1012
  • 190200Z AUTO VRB03KT 9999 ////// 22/12 Q1012
  • 190130Z AUTO VRB01KT 9999 ////// 23/12 Q1013
  • 190100Z AUTO 11007KT 080V140 9999 ////// 25/12 Q1013
  • 190030Z AUTO 11010KT 9999 ////// 25/13 Q1013
  • 190000Z AUTO 12006KT 090V160 9999 ////// 25/13 Q1013
  • 182330Z AUTO 11004KT 070V150 9999 ////// 25/12 Q1013
  • 182300Z AUTO 13007KT 9999 ////// 26/12 Q1014

TAF N/A



MET'MAP, your aeronautical weather chart ! - Copyright ORBIFLY December 2007 - Disclaimer

ORBIFLY MET'MAP TEAM :

Programming & Development : Alexandra Zaïnal
Original concept : Baudouin d'Aumeries
Technical & hardware support : Manuel Goepfert
Assistance : Marc-Olivier Méhu




SOURCES & CREDITS :

   NOAA